Time;durP1;ratioP1;P1;durP2;ratioP2;P2;SDS_P1;SDS_P2;PMS_P1;PMS_P2;Temp;Humidity;BMP_temperature;BMP_pressure;BME280_temperature;BME280_humidity;BME280_pressure;Samples;Min_cycle;Max_cycle;Signal;HPM_P1;HPM_P2
2022/05/02 00:01:45;;;;;;;16.30;14.07;;;;;;;-143.37;100.00;62585.38;5045521;28;20449;-77
2022/05/02 00:04:21;;;;;;;15.33;13.60;;;;;;;-143.37;100.00;62585.38;5033837;28;20462;-77
2022/05/02 00:06:57;;;;;;;16.00;13.83;;;;;;;-143.37;100.00;62585.38;5041459;28;20473;-78
2022/05/02 00:09:32;;;;;;;15.67;14.07;;;;;;;-143.37;100.00;62585.38;5034455;28;20560;-77
2022/05/02 00:12:09;;;;;;;15.70;13.70;;;;;;;-143.37;100.00;62585.38;5063923;28;20447;-77
2022/05/02 00:14:44;;;;;;;15.37;13.77;;;;;;;-143.37;100.00;62585.38;5045897;28;20438;-77
2022/05/02 00:17:56;;;;;;;16.13;12.97;;;;;;;-143.37;100.00;62585.38;5045836;28;20445;-77
2022/05/02 00:20:18;;;;;;;15.67;13.10;;;;;;;-143.37;100.00;62585.38;5047059;28;20560;-77
2022/05/02 00:22:54;;;;;;;16.27;13.83;;;;;;;-143.37;100.00;62585.38;5031714;28;21620;-77
2022/05/02 00:25:30;;;;;;;15.33;13.70;;;;;;;-143.37;100.00;62585.38;5047518;28;20457;-77
2022/05/02 00:28:07;;;;;;;15.90;14.20;;;;;;;-143.37;100.00;62585.38;5047842;28;20860;-77
2022/05/02 00:30:42;;;;;;;19.27;14.17;;;;;;;-143.37;100.00;62585.38;5045807;28;20434;-77
2022/05/02 00:33:20;;;;;;;15.93;13.33;;;;;;;-143.37;100.00;62585.38;5047749;28;20489;-77
2022/05/02 00:35:56;;;;;;;15.37;13.77;;;;;;;-143.37;100.00;62585.38;5045743;28;20438;-77
2022/05/02 00:38:32;;;;;;;14.10;12.67;;;;;;;-143.37;100.00;62585.38;5046768;28;20800;-77
2022/05/02 00:41:08;;;;;;;15.17;13.23;;;;;;;-143.37;100.00;62585.38;5034681;28;20533;-77
2022/05/02 00:43:44;;;;;;;18.60;14.60;;;;;;;-143.37;100.00;62585.38;5063195;28;20913;-77
2022/05/02 00:46:21;;;;;;;15.47;12.47;;;;;;;-143.37;100.00;62585.38;5030785;28;20429;-77
2022/05/02 00:48:58;;;;;;;17.30;14.83;;;;;;;-143.37;100.00;62585.38;5029762;28;20472;-77
2022/05/02 00:51:34;;;;;;;15.57;14.03;;;;;;;-143.37;100.00;62585.38;5033489;28;20430;-77
2022/05/02 00:54:10;;;;;;;14.77;12.10;;;;;;;-143.37;100.00;62585.38;5045217;28;20445;-77
2022/05/02 00:56:58;;;;;;;16.33;13.80;;;;;;;-143.37;100.00;62585.38;5046950;28;20437;-77
2022/05/02 00:59:37;;;;;;;15.23;13.20;;;;;;;-143.37;100.00;62585.38;5045452;28;21042;-77
2022/05/02 01:02:14;;;;;;;14.00;12.60;;;;;;;-143.37;100.00;62585.38;5047626;28;20433;-77
2022/05/02 01:04:51;;;;;;;13.97;12.47;;;;;;;-143.37;100.00;62585.38;5046887;28;20433;-77
2022/05/02 01:07:26;;;;;;;15.03;12.50;;;;;;;-143.37;100.00;62585.38;5052131;28;20465;-77
2022/05/02 01:10:02;;;;;;;14.77;12.80;;;;;;;-143.37;100.00;62585.38;5046968;28;20516;-77
2022/05/02 01:12:37;;;;;;;15.40;13.30;;;;;;;-143.37;100.00;62585.38;5050775;28;20462;-77
2022/05/02 01:15:14;;;;;;;15.30;13.73;;;;;;;-143.37;100.00;62585.38;5049827;28;20496;-77
2022/05/02 01:17:50;;;;;;;17.10;13.87;;;;;;;-143.37;100.00;62585.38;5064306;28;20449;-77
2022/05/02 01:20:27;;;;;;;14.67;13.07;;;;;;;-143.37;100.00;62585.38;5049439;28;20490;-77
2022/05/02 01:23:02;;;;;;;14.30;12.80;;;;;;;-143.37;100.00;62585.38;5049200;28;20482;-77
2022/05/02 01:25:38;;;;;;;15.30;13.43;;;;;;;-143.37;100.00;62585.38;5048355;28;20551;-77
2022/05/02 01:28:14;;;;;;;15.27;13.47;;;;;;;-143.37;100.00;62585.38;5047098;28;20442;-77
2022/05/02 01:30:50;;;;;;;15.33;13.50;;;;;;;-143.37;100.00;62585.38;5049794;28;20480;-77
2022/05/02 01:33:25;;;;;;;14.87;13.30;;;;;;;-143.37;100.00;62585.38;5067648;28;20473;-77
2022/05/02 01:36:02;;;;;;;16.07;14.37;;;;;;;-143.37;100.00;62585.38;5064006;28;20441;-77
2022/05/02 01:38:38;;;;;;;15.00;13.50;;;;;;;-143.37;100.00;62585.38;5049883;28;20538;-77
2022/05/02 01:41:15;;;;;;;16.37;14.07;;;;;;;-143.37;100.00;62585.38;5050692;28;20553;-77
2022/05/02 01:43:50;;;;;;;15.57;13.93;;;;;;;-143.37;100.00;62585.38;5046697;28;20447;-77
2022/05/02 01:46:26;;;;;;;16.63;14.90;;;;;;;-143.37;100.00;62585.38;5034798;28;20430;-77
2022/05/02 01:49:02;;;;;;;15.47;13.57;;;;;;;-143.37;100.00;62585.38;5045624;28;20450;-77
2022/05/02 01:51:39;;;;;;;15.83;14.00;;;;;;;-143.37;100.00;62585.38;5039684;28;20777;-77
2022/05/02 01:54:15;;;;;;;17.27;13.80;;;;;;;-143.37;100.00;62585.38;5034505;28;20463;-77
2022/05/02 01:56:51;;;;;;;15.97;14.37;;;;;;;-143.37;100.00;62585.38;5047146;28;20454;-77
2022/05/02 01:59:26;;;;;;;14.83;13.30;;;;;;;-143.37;100.00;62585.38;5046961;28;20488;-77
2022/05/02 02:02:02;;;;;;;16.70;13.80;;;;;;;-143.37;100.00;62585.38;5027118;28;20489;-77
2022/05/02 02:07:32;;;;;;;15.50;13.83;;;;;;;-143.37;100.00;62585.38;5046165;28;21005;-77
2022/05/02 02:10:08;;;;;;;19.00;13.60;;;;;;;-143.37;100.00;62585.38;5066873;28;20434;-77
2022/05/02 02:12:44;;;;;;;16.63;13.80;;;;;;;-143.37;100.00;62585.38;5033699;28;20441;-77
2022/05/02 02:15:20;;;;;;;16.37;14.63;;;;;;;-143.37;100.00;62585.38;5050214;28;20441;-77
2022/05/02 02:17:57;;;;;;;15.63;13.93;;;;;;;-143.37;100.00;62585.38;5032759;28;20442;-77
2022/05/02 02:20:36;;;;;;;15.53;13.90;;;;;;;-143.37;100.00;62585.38;5053991;28;20453;-77
2022/05/02 02:23:18;;;;;;;14.27;12.70;;;;;;;-143.37;100.00;62585.38;5053779;28;20443;-77
2022/05/02 02:25:57;;;;;;;14.97;12.73;;;;;;;-143.37;100.00;62585.38;5032914;28;20441;-77
2022/05/02 02:28:34;;;;;;;19.13;14.80;;;;;;;-143.37;100.00;62585.38;5034872;28;20943;-77
2022/05/02 02:31:09;;;;;;;19.40;15.97;;;;;;;-143.37;100.00;62585.38;5053773;28;20439;-77
2022/05/02 02:33:55;;;;;;;16.93;15.13;;;;;;;-143.37;100.00;62585.38;5065160;28;20449;-77
2022/05/02 02:36:41;;;;;;;17.57;15.77;;;;;;;-143.37;100.00;62585.38;5057128;28;20539;-77
2022/05/02 02:39:19;;;;;;;16.67;14.90;;;;;;;-143.37;100.00;62585.38;5033584;28;20469;-77
2022/05/02 02:41:58;;;;;;;14.80;13.30;;;;;;;-143.37;100.00;62585.38;5036654;28;20446;-77
2022/05/02 02:44:34;;;;;;;16.63;14.93;;;;;;;-143.37;100.00;62585.38;5051117;28;20458;-77
2022/05/02 02:47:09;;;;;;;15.10;13.50;;;;;;;-143.37;100.00;62585.38;5038456;28;20522;-77
2022/05/02 02:49:45;;;;;;;16.53;14.73;;;;;;;-143.37;100.00;62585.38;5050172;28;20460;-77
2022/05/02 02:52:21;;;;;;;18.27;16.20;;;;;;;-143.37;100.00;62585.38;5064905;28;20666;-77
2022/05/02 02:54:59;;;;;;;17.00;15.30;;;;;;;-143.37;100.00;62585.38;5043820;28;20442;-77
2022/05/02 02:57:35;;;;;;;17.07;14.83;;;;;;;-143.37;100.00;62585.38;5038170;28;20442;-77
2022/05/02 03:00:12;;;;;;;22.07;16.23;;;;;;;-143.37;100.00;62585.38;5049618;28;20466;-77
2022/05/02 03:02:49;;;;;;;16.83;15.00;;;;;;;-143.37;100.00;62585.38;5032303;28;20441;-77
2022/05/02 03:08:19;;;;;;;17.83;15.60;;;;;;;-143.37;100.00;62585.38;5062284;28;20966;-77
2022/05/02 03:10:59;;;;;;;18.90;16.90;;;;;;;-143.37;100.00;62585.38;5037749;28;20445;-77
2022/05/02 03:13:34;;;;;;;21.57;17.00;;;;;;;-143.37;100.00;62585.38;5069042;28;20553;-77
2022/05/02 03:16:11;;;;;;;18.53;16.70;;;;;;;-143.37;100.00;62585.38;5055669;28;20434;-77
2022/05/02 03:18:47;;;;;;;19.80;17.20;;;;;;;-143.37;100.00;62585.38;5045417;28;20844;-77
2022/05/02 03:21:22;;;;;;;18.03;15.80;;;;;;;-143.37;100.00;62585.38;5051487;28;20456;-77
2022/05/02 03:24:00;;;;;;;17.73;15.83;;;;;;;-143.37;100.00;62585.38;5056934;28;20454;-77
2022/05/02 03:31:59;;;;;;;18.33;15.63;;;;;;;-143.37;100.00;62585.38;5066709;28;20519;-77
2022/05/02 03:34:35;;;;;;;17.80;15.43;;;;;;;-143.37;100.00;62585.38;5051289;28;20434;-77
2022/05/02 03:37:11;;;;;;;19.70;16.93;;;;;;;-143.37;100.00;62585.38;5056399;28;20440;-77
2022/05/02 03:39:46;;;;;;;18.60;15.30;;;;;;;-143.37;100.00;62585.38;5052157;28;20445;-77
2022/05/02 03:42:22;;;;;;;21.87;18.50;;;;;;;-143.37;100.00;62585.38;5068413;28;20810;-77
2022/05/02 03:44:58;;;;;;;18.57;16.10;;;;;;;-143.37;100.00;62585.38;5053885;28;20542;-77
2022/05/02 03:47:35;;;;;;;18.40;16.30;;;;;;;-143.37;100.00;62585.38;5050056;28;20538;-77
2022/05/02 03:50:11;;;;;;;20.23;17.40;;;;;;;-143.37;100.00;62585.38;5039328;28;20445;-77
2022/05/02 03:52:46;;;;;;;18.37;16.40;;;;;;;-143.37;100.00;62585.38;5047559;28;21160;-77
2022/05/02 03:55:22;;;;;;;21.33;16.47;;;;;;;-143.37;100.00;62585.38;5050007;28;20453;-77
2022/05/02 03:57:58;;;;;;;18.47;15.97;;;;;;;-143.37;100.00;62585.38;5048975;28;20445;-77
2022/05/02 04:00:34;;;;;;;20.00;16.57;;;;;;;-143.37;100.00;62585.38;5050234;28;20465;-77
2022/05/02 04:03:12;;;;;;;19.20;17.20;;;;;;;-143.37;100.00;62585.38;5046506;28;20825;-77
2022/05/02 04:05:48;;;;;;;17.90;16.00;;;;;;;-143.37;100.00;62585.38;5047295;28;20445;-77
2022/05/02 04:08:23;;;;;;;21.77;18.23;;;;;;;-143.37;100.00;62585.38;5069099;28;20449;-77
2022/05/02 04:10:59;;;;;;;20.77;17.40;;;;;;;-143.37;100.00;62585.38;5067051;28;20481;-77
2022/05/02 04:13:34;;;;;;;19.83;17.70;;;;;;;-143.37;100.00;62585.38;5050290;28;20477;-77
2022/05/02 04:16:11;;;;;;;20.10;17.90;;;;;;;-143.37;100.00;62585.38;5038684;28;20448;-77
2022/05/02 04:18:48;;;;;;;19.93;17.83;;;;;;;-143.37;100.00;62585.38;5055530;28;20433;-77
2022/05/02 04:21:24;;;;;;;20.00;17.90;;;;;;;-143.37;100.00;62585.38;5050298;28;20569;-77
2022/05/02 04:23:59;;;;;;;18.57;16.27;;;;;;;-143.37;100.00;62585.38;5052435;28;20536;-77
2022/05/02 04:26:45;;;;;;;21.07;17.70;;;;;;;-143.37;100.00;62585.38;5034864;28;20799;-77
2022/05/02 04:29:21;;;;;;;21.40;18.97;;;;;;;-143.37;100.00;62585.38;5044057;28;20449;-77
2022/05/02 04:31:57;;;;;;;21.37;17.87;;;;;;;-143.37;100.00;62585.38;5045914;28;20481;-77
2022/05/02 04:34:35;;;;;;;20.20;18.00;;;;;;;-143.37;100.00;62585.38;5054063;28;20448;-77
2022/05/02 04:37:11;;;;;;;20.87;17.20;;;;;;;-143.37;100.00;62585.38;5029278;28;20441;-77
2022/05/02 04:39:47;;;;;;;20.70;18.43;;;;;;;-143.37;100.00;62585.38;5041260;28;20536;-77
2022/05/02 04:42:23;;;;;;;21.70;19.40;;;;;;;-143.37;100.00;62585.38;5039118;28;20429;-77
2022/05/02 04:44:58;;;;;;;22.20;18.50;;;;;;;-143.37;100.00;62585.38;5032084;28;20543;-78
2022/05/02 04:47:34;;;;;;;20.10;17.60;;;;;;;-143.37;100.00;62585.38;5043410;28;20438;-77
2022/05/02 04:50:11;;;;;;;20.87;18.40;;;;;;;-143.37;100.00;62585.38;5045257;28;20438;-77
2022/05/02 04:52:46;;;;;;;20.87;18.57;;;;;;;-143.37;100.00;62585.38;5052542;28;20441;-77
2022/05/02 04:55:22;;;;;;;21.10;18.80;;;;;;;-143.37;100.00;62585.38;5027546;28;20447;-77
2022/05/02 04:57:57;;;;;;;19.67;17.63;;;;;;;-143.37;100.00;62585.38;5049843;28;20433;-77
2022/05/02 05:00:33;;;;;;;24.20;19.33;;;;;;;-143.37;100.00;62585.38;5044001;28;20462;-77
2022/05/02 05:03:09;;;;;;;20.27;17.90;;;;;;;-143.37;100.00;62585.38;5043715;28;20507;-77
2022/05/02 05:05:46;;;;;;;19.33;17.27;;;;;;;-143.37;100.00;62585.38;5058337;28;20474;-77
2022/05/02 05:08:22;;;;;;;20.00;16.90;;;;;;;-143.37;100.00;62585.38;5049120;28;20615;-77
2022/05/02 05:11:06;;;;;;;21.43;18.27;;;;;;;-143.37;100.00;62585.38;5051131;28;20941;-77
2022/05/02 05:16:20;;;;;;;21.10;18.87;;;;;;;-143.37;100.00;62585.38;5031946;28;20430;-77
2022/05/02 05:16:53;;;;;;;19.87;17.73;;;;;;;-143.37;100.00;62585.38;5032275;28;20442;-77
2022/05/02 05:19:49;;;;;;;21.27;17.47;;;;;;;-143.37;100.00;62585.38;5053506;28;20458;-78
2022/05/02 05:22:38;;;;;;;22.27;19.50;;;;;;;-143.37;100.00;62585.38;5035228;28;20599;-77
2022/05/02 05:25:24;;;;;;;22.07;19.63;;;;;;;-143.37;100.00;62585.38;5050933;28;20452;-78
2022/05/02 05:28:22;;;;;;;19.53;16.43;;;;;;;-143.37;100.00;62585.38;5047540;28;20450;-77
2022/05/02 05:31:11;;;;;;;22.03;19.83;;;;;;;-143.37;100.00;62585.38;5046627;28;20465;-78
2022/05/02 05:33:51;;;;;;;21.20;19.00;;;;;;;-143.37;100.00;62585.38;5050874;28;20438;-78
2022/05/02 05:36:35;;;;;;;23.60;19.33;;;;;;;-143.37;100.00;62585.38;5062241;28;20548;-78
2022/05/02 05:39:20;;;;;;;22.90;19.40;;;;;;;-143.37;100.00;62585.38;5044189;28;20533;-78
2022/05/02 05:42:06;;;;;;;21.17;18.57;;;;;;;-143.37;100.00;62585.38;5033812;28;20576;-77
2022/05/02 05:44:53;;;;;;;20.30;18.20;;;;;;;-143.37;100.00;62585.38;5035660;28;20453;-77
2022/05/02 05:47:44;;;;;;;21.27;18.97;;;;;;;-143.37;100.00;62585.38;5053228;28;20430;-78
2022/05/02 05:50:22;;;;;;;20.50;18.30;;;;;;;-143.37;100.00;62585.38;5052460;28;20552;-78
2022/05/02 05:53:06;;;;;;;20.17;17.93;;;;;;;-143.37;100.00;62585.38;5040962;28;20987;-78
2022/05/02 05:56:03;;;;;;;23.57;19.10;;;;;;;-143.37;100.00;62585.38;5042333;28;20449;-78
2022/05/02 05:58:45;;;;;;;20.10;18.00;;;;;;;-143.37;100.00;62585.38;5060145;28;20445;-78
2022/05/02 06:01:31;;;;;;;18.43;16.53;;;;;;;-143.37;100.00;62585.38;5029742;28;20474;-78
2022/05/02 06:04:07;;;;;;;19.00;17.00;;;;;;;-143.37;100.00;62585.38;5070793;28;20441;-78
2022/05/02 06:06:43;;;;;;;19.43;16.90;;;;;;;-143.37;100.00;62585.38;5055592;28;20438;-78
2022/05/02 06:09:19;;;;;;;19.07;17.00;;;;;;;-143.37;100.00;62585.38;5046607;28;20460;-78
2022/05/02 06:11:57;;;;;;;19.27;17.27;;;;;;;-143.37;100.00;62585.38;5065036;28;20441;-78
2022/05/02 06:18:27;;;;;;;19.20;17.13;;;;;;;-143.37;100.00;62585.38;5063809;28;20437;-78
2022/05/02 06:20:30;;;;;;;18.07;16.17;;;;;;;-143.37;100.00;62585.38;5034675;28;20456;-79
2022/05/02 06:23:09;;;;;;;18.20;16.40;;;;;;;-143.37;100.00;62585.38;5033950;28;20541;-78
2022/05/02 06:25:50;;;;;;;19.20;16.90;;;;;;;-143.37;100.00;62585.38;5055648;28;20532;-78
2022/05/02 06:28:31;;;;;;;18.47;16.67;;;;;;;-143.37;100.00;62585.38;5041043;28;20443;-78
2022/05/02 06:31:12;;;;;;;18.43;16.20;;;;;;;-143.37;100.00;62585.38;5057367;28;20514;-78
2022/05/02 06:33:50;;;;;;;17.50;15.70;;;;;;;-143.37;100.00;62585.38;5026442;28;20442;-79
2022/05/02 06:36:43;;;;;;;18.03;16.20;;;;;;;-143.37;100.00;62585.38;5014346;28;20447;-79
2022/05/02 06:39:26;;;;;;;18.47;16.67;;;;;;;-143.37;100.00;62585.38;5013612;28;20439;-79
2022/05/02 06:42:16;;;;;;;18.67;16.83;;;;;;;-143.37;100.00;62585.38;5021452;28;20467;-79
2022/05/02 06:45:08;;;;;;;18.50;16.80;;;;;;;-143.37;100.00;62585.38;5028866;28;20431;-79
2022/05/02 06:47:54;;;;;;;19.60;17.60;;;;;;;-143.37;100.00;62585.38;5012036;28;20574;-79
2022/05/02 06:50:33;;;;;;;18.83;16.77;;;;;;;-143.37;100.00;62585.38;5012072;28;20435;-79
2022/05/02 06:53:24;;;;;;;18.03;16.23;;;;;;;-143.37;100.00;62585.38;5027248;28;20809;-79
2022/05/02 06:56:08;;;;;;;19.40;17.50;;;;;;;-143.37;100.00;62585.38;5024664;28;20866;-79
2022/05/02 06:58:50;;;;;;;20.37;17.03;;;;;;;-143.37;100.00;62585.38;5007440;28;20463;-79
2022/05/02 07:01:36;;;;;;;17.37;15.77;;;;;;;-143.37;100.00;62585.38;5015593;28;20547;-79
2022/05/02 07:04:28;;;;;;;19.87;17.87;;;;;;;-143.37;100.00;62585.38;5050677;28;20438;-79
2022/05/02 07:07:11;;;;;;;19.40;17.47;;;;;;;-143.37;100.00;62585.38;5050891;28;20716;-79
2022/05/02 07:09:48;;;;;;;18.53;16.63;;;;;;;-143.37;100.00;62585.38;5029471;28;20533;-79
2022/05/02 07:12:25;;;;;;;18.90;16.90;;;;;;;-143.37;100.00;62585.38;5029684;28;20442;-79
2022/05/02 07:15:05;;;;;;;19.70;17.80;;;;;;;-143.37;100.00;62585.38;5024229;28;20867;-79
2022/05/02 07:17:52;;;;;;;18.13;16.23;;;;;;;-143.37;100.00;62585.38;5023326;28;20964;-79
2022/05/02 07:20:32;;;;;;;19.30;17.23;;;;;;;-143.37;100.00;62585.38;5031500;28;20454;-79
2022/05/02 07:23:18;;;;;;;17.40;15.80;;;;;;;-143.37;100.00;62585.38;5029876;28;20447;-79
2022/05/02 07:25:58;;;;;;;18.50;16.80;;;;;;;-143.37;100.00;62585.38;5042088;28;20459;-79
2022/05/02 07:28:37;;;;;;;19.00;17.20;;;;;;;-143.37;100.00;62585.38;5005862;28;20431;-79
2022/05/02 07:31:14;;;;;;;19.57;17.47;;;;;;;-143.37;100.00;62585.38;5043937;28;20477;-79
2022/05/02 07:33:52;;;;;;;19.30;17.50;;;;;;;-143.37;100.00;62585.38;5045672;28;20437;-79
2022/05/02 07:36:28;;;;;;;18.83;17.00;;;;;;;-143.37;100.00;62585.38;5040421;28;20848;-79
2022/05/02 07:39:05;;;;;;;18.70;16.90;;;;;;;-143.37;100.00;62585.38;5066765;28;20536;-79
2022/05/02 07:41:42;;;;;;;19.13;17.27;;;;;;;-143.37;100.00;62585.38;5047078;28;20474;-79
2022/05/02 07:44:20;;;;;;;19.90;17.90;;;;;;;-143.37;100.00;62585.38;5063090;28;20438;-79
2022/05/02 07:47:00;;;;;;;18.97;17.20;;;;;;;-143.37;100.00;62585.38;5063893;28;20453;-79
2022/05/02 07:49:39;;;;;;;18.80;17.00;;;;;;;-143.37;100.00;62585.38;5060126;28;20454;-77
2022/05/02 07:52:17;;;;;;;19.00;17.10;;;;;;;-143.37;100.00;62585.38;5042569;28;20434;-77
2022/05/02 07:54:53;;;;;;;18.03;16.13;;;;;;;-143.37;100.00;62585.38;5062063;28;20441;-77
2022/05/02 07:57:31;;;;;;;19.67;17.60;;;;;;;-143.37;100.00;62585.38;5067934;28;20792;-77
2022/05/02 08:00:08;;;;;;;20.63;18.63;;;;;;;-143.37;100.00;62585.38;5048740;28;20881;-77
2022/05/02 08:02:50;;;;;;;20.23;18.27;;;;;;;-143.37;100.00;62585.38;5067979;28;20484;-77
2022/05/02 08:05:28;;;;;;;19.57;17.57;;;;;;;-143.37;100.00;62585.38;5049977;28;20454;-77
2022/05/02 08:08:14;;;;;;;17.50;15.80;;;;;;;-143.37;100.00;62585.38;5048847;28;20477;-79
2022/05/02 08:10:58;;;;;;;16.50;14.80;;;;;;;-143.37;100.00;62585.38;5047789;28;20441;-79
2022/05/02 08:13:38;;;;;;;18.03;16.40;;;;;;;-143.37;100.00;62585.38;5039758;28;20450;-79
2022/05/02 08:16:20;;;;;;;17.30;15.70;;;;;;;-143.37;100.00;62585.38;5046186;28;20482;-79
2022/05/02 08:19:24;;;;;;;16.37;14.77;;;;;;;-143.37;100.00;62585.38;5046830;28;20828;-79
2022/05/02 08:28:02;;;;;;;18.47;16.80;;;;;;;-143.37;100.00;62585.38;5036881;28;20442;-79
2022/05/02 08:30:46;;;;;;;17.23;15.67;;;;;;;-143.37;100.00;62585.38;5064185;28;20469;-79
2022/05/02 08:33:26;;;;;;;20.17;17.00;;;;;;;-143.37;100.00;62585.38;5064170;28;20480;-79
2022/05/02 08:36:05;;;;;;;17.20;15.60;;;;;;;-143.37;100.00;62585.38;5048447;28;20438;-77
2022/05/02 08:38:48;;;;;;;15.90;14.40;;;;;;;-143.37;100.00;62585.38;5041839;28;20438;-79
2022/05/02 08:42:12;;;;;;;17.97;16.23;;;;;;;-143.37;100.00;62585.38;5064790;28;21417;-79
2022/05/02 08:45:15;;;;;;;16.37;14.87;;;;;;;-143.37;100.00;62585.38;5010914;28;20967;-79
2022/05/02 08:48:27;;;;;;;15.87;14.47;;;;;;;-143.37;100.00;62585.38;5045909;28;20507;-79
2022/05/02 08:51:43;;;;;;;16.57;14.87;;;;;;;-143.37;100.00;62585.38;5057519;28;20897;-79
2022/05/02 08:54:40;;;;;;;15.57;14.07;;;;;;;-143.37;100.00;62585.38;5041857;28;20541;-79
2022/05/02 08:57:28;;;;;;;16.50;14.90;;;;;;;-143.37;100.00;62585.38;5053917;28;20434;-79
2022/05/02 09:00:09;;;;;;;16.50;14.90;;;;;;;-143.37;100.00;62585.38;5040276;28;20859;-79
2022/05/02 09:03:12;;;;;;;15.80;14.20;;;;;;;-143.37;100.00;62585.38;5028307;28;20458;-79
2022/05/02 09:05:58;;;;;;;15.43;14.03;;;;;;;-143.37;100.00;62585.38;5060596;28;20454;-79
2022/05/02 09:09:04;;;;;;;15.07;13.57;;;;;;;-143.37;100.00;62585.38;5048165;28;20450;-78
2022/05/02 09:12:16;;;;;;;18.83;16.97;;;;;;;-143.37;100.00;62585.38;5060505;28;20458;-78
2022/05/02 09:15:11;;;;;;;15.87;14.27;;;;;;;-143.37;100.00;62585.38;5042837;28;20466;-78
2022/05/02 09:18:03;;;;;;;16.90;15.40;;;;;;;-143.37;100.00;62585.38;5046516;28;20454;-78
2022/05/02 09:21:00;;;;;;;17.43;15.73;;;;;;;-143.37;100.00;62585.38;5033153;28;20846;-78
2022/05/02 09:24:05;;;;;;;18.60;15.77;;;;;;;-143.37;100.00;62585.38;5069674;28;20458;-78
2022/05/02 09:27:14;;;;;;;18.77;16.87;;;;;;;-143.37;100.00;62585.38;5070375;28;20449;-78
2022/05/02 09:30:23;;;;;;;17.23;15.50;;;;;;;-143.37;100.00;62585.38;5052722;28;20547;-78
2022/05/02 09:33:26;;;;;;;16.23;14.73;;;;;;;-143.37;100.00;62585.38;5038578;28;20445;-78
2022/05/02 09:36:13;;;;;;;16.90;15.20;;;;;;;-143.37;100.00;62585.38;5068437;28;20923;-78
2022/05/02 09:38:54;;;;;;;15.70;14.20;;;;;;;-143.37;100.00;62585.38;5074295;28;20536;-79
2022/05/02 09:41:41;;;;;;;16.63;14.67;;;;;;;-143.37;100.00;62585.38;5052558;28;20445;-78
2022/05/02 09:50:39;;;;;;;16.60;13.70;;;;;;;-143.37;100.00;62585.38;5058487;28;20552;-78
2022/05/02 09:53:26;;;;;;;16.03;14.43;;;;;;;-143.37;100.00;62585.38;5052135;28;20966;-78
2022/05/02 09:59:35;;;;;;;14.27;12.80;;;;;;;-143.37;100.00;62585.38;5072058;28;20442;-78
2022/05/02 10:02:21;;;;;;;13.80;11.17;;;;;;;-143.37;100.00;62585.38;5072680;28;20457;-78
2022/05/02 10:05:06;;;;;;;12.47;11.17;;;;;;;-143.37;100.00;62585.38;5049567;28;20461;-78
2022/05/02 10:07:48;;;;;;;12.07;11.00;;;;;;;-143.37;100.00;62585.38;5058246;28;20445;-78
2022/05/02 10:10:27;;;;;;;14.03;12.60;;;;;;;-143.37;100.00;62585.38;5047374;28;20441;-78
2022/05/02 10:13:16;;;;;;;12.57;11.27;;;;;;;-143.37;100.00;62585.38;5034204;28;20446;-78
2022/05/02 10:16:04;;;;;;;13.37;12.17;;;;;;;-143.37;100.00;62585.38;5053719;28;20541;-78
2022/05/02 10:18:52;;;;;;;11.93;10.73;;;;;;;-143.37;100.00;62585.38;5045706;28;20549;-78
2022/05/02 10:21:47;;;;;;;10.77;9.67;;;;;;;-143.37;100.00;62585.38;5052275;28;20544;-78
2022/05/02 10:24:43;;;;;;;10.87;9.77;;;;;;;-143.37;100.00;62585.38;5068938;28;20441;-78
2022/05/02 10:27:34;;;;;;;11.07;10.07;;;;;;;-143.37;100.00;62585.38;5071231;28;20446;-78
2022/05/02 10:30:12;;;;;;;11.90;10.70;;;;;;;-143.37;100.00;62585.38;5028756;28;21240;-78
2022/05/02 10:32:56;;;;;;;10.97;9.97;;;;;;;-143.37;100.00;62585.38;5063707;28;20442;-77
2022/05/02 10:35:33;;;;;;;11.73;10.70;;;;;;;-143.37;100.00;62585.38;5041931;28;20470;-78
2022/05/02 10:38:09;;;;;;;11.13;10.10;;;;;;;-143.37;100.00;62585.38;5066440;28;20446;-78
2022/05/02 10:40:46;;;;;;;10.60;9.60;;;;;;;-143.37;100.00;62585.38;5069249;28;20449;-78
2022/05/02 10:43:25;;;;;;;11.20;10.20;;;;;;;-143.37;100.00;62585.38;5065290;28;20470;-78
2022/05/02 10:46:01;;;;;;;11.20;10.10;;;;;;;-143.37;100.00;62585.38;5064934;28;20454;-78
2022/05/02 10:48:43;;;;;;;10.80;9.80;;;;;;;-143.37;100.00;62585.38;5062938;28;20912;-78
2022/05/02 10:51:30;;;;;;;11.60;10.50;;;;;;;-143.37;100.00;62585.38;5064480;28;20854;-77
2022/05/02 10:54:09;;;;;;;10.63;9.53;;;;;;;-143.37;100.00;62585.38;5061841;28;20932;-77
2022/05/02 10:56:47;;;;;;;9.43;8.63;;;;;;;-143.37;100.00;62585.38;5064378;28;20453;-79
2022/05/02 10:59:24;;;;;;;9.63;8.73;;;;;;;-143.37;100.00;62585.38;5046028;28;20454;-77
2022/05/02 11:02:13;;;;;;;10.83;9.80;;;;;;;-143.37;100.00;62585.38;5066611;28;20482;-77
2022/05/02 11:05:09;;;;;;;10.80;9.80;;;;;;;-143.37;100.00;62585.38;5046787;28;20827;-78
2022/05/02 11:08:04;;;;;;;10.60;9.60;;;;;;;-143.37;100.00;62585.38;5062973;28;20445;-78
2022/05/02 11:10:44;;;;;;;11.27;10.13;;;;;;;-143.37;100.00;62585.38;5059519;28;20910;-78
2022/05/02 11:13:28;;;;;;;11.00;10.00;;;;;;;-143.37;100.00;62585.38;5042957;28;20450;-79
2022/05/02 11:16:12;;;;;;;10.97;9.90;;;;;;;-143.37;100.00;62585.38;5045812;28;20562;-78
2022/05/02 11:22:05;;;;;;;10.77;9.77;;;;;;;-143.37;100.00;62585.38;5047802;28;20453;-78
2022/05/02 11:24:43;;;;;;;10.37;9.40;;;;;;;-143.37;100.00;62585.38;5040791;28;20536;-76
2022/05/02 11:27:38;;;;;;;12.00;10.90;;;;;;;-143.37;100.00;62585.38;5041033;28;20896;-78
2022/05/02 11:30:15;;;;;;;10.03;9.13;;;;;;;-143.37;100.00;62585.38;5060019;28;20477;-78
2022/05/02 11:33:03;;;;;;;10.30;9.30;;;;;;;-143.37;100.00;62585.38;5041728;28;20461;-78
2022/05/02 11:35:39;;;;;;;10.57;9.57;;;;;;;-143.37;100.00;62585.38;5064747;28;20784;-78
2022/05/02 11:38:29;;;;;;;8.50;7.70;;;;;;;-143.37;100.00;62585.38;5044187;28;20803;-78
2022/05/02 11:41:12;;;;;;;10.67;9.67;;;;;;;-143.37;100.00;62585.38;5038018;28;20942;-78
2022/05/02 11:43:51;;;;;;;8.60;7.80;;;;;;;-143.37;100.00;62585.38;5047461;28;20457;-78
2022/05/02 11:46:28;;;;;;;9.43;8.53;;;;;;;-143.37;100.00;62585.38;5048284;28;20449;-78
2022/05/02 11:49:14;;;;;;;8.70;7.90;;;;;;;-143.37;100.00;62585.38;5063798;28;20442;-78
2022/05/02 11:51:51;;;;;;;8.20;7.40;;;;;;;-143.37;100.00;62585.38;5047054;28;20446;-77
2022/05/02 11:54:36;;;;;;;9.40;7.90;;;;;;;-143.37;100.00;62585.38;5042795;28;20805;-77
2022/05/02 11:57:22;;;;;;;8.43;7.67;;;;;;;-143.37;100.00;62585.38;5048380;28;20438;-78
2022/05/02 12:00:03;;;;;;;8.67;7.87;;;;;;;-143.37;100.00;62585.38;5064247;28;20446;-78
2022/05/02 12:02:43;;;;;;;9.20;8.30;;;;;;;-143.37;100.00;62585.38;5042851;28;20462;-78
2022/05/02 12:05:31;;;;;;;10.70;9.70;;;;;;;-143.37;100.00;62585.38;5045111;28;20453;-78
2022/05/02 12:08:09;;;;;;;9.63;8.70;;;;;;;-143.37;100.00;62585.38;5050004;28;20446;-78
2022/05/02 12:10:47;;;;;;;8.63;7.73;;;;;;;-143.37;100.00;62585.38;5065570;28;20834;-78
2022/05/02 12:13:33;;;;;;;10.83;9.83;;;;;;;-143.37;100.00;62585.38;5027546;28;20540;-77
2022/05/02 12:16:10;;;;;;;11.50;9.23;;;;;;;-143.37;100.00;62585.38;5062468;28;20829;-77
2022/05/02 12:18:47;;;;;;;9.77;8.77;;;;;;;-143.37;100.00;62585.38;5045038;28;20441;-78
2022/05/02 12:21:24;;;;;;;9.00;8.10;;;;;;;-143.37;100.00;62585.38;5046666;28;20449;-77
2022/05/02 12:24:05;;;;;;;9.47;8.57;;;;;;;-143.37;100.00;62585.38;5043694;28;20466;-78
2022/05/02 12:26:46;;;;;;;9.07;7.87;;;;;;;-143.37;100.00;62585.38;5044728;28;20449;-78
2022/05/02 12:29:23;;;;;;;9.20;8.40;;;;;;;-143.37;100.00;62585.38;5045839;28;20442;-78
2022/05/02 12:32:00;;;;;;;9.70;8.90;;;;;;;-143.37;100.00;62585.38;5044279;28;20469;-78